Time;durP1;ratioP1;P1;durP2;ratioP2;P2;SDS_P1;SDS_P2;PMS_P1;PMS_P2;Temp;Humidity;BMP_temperature;BMP_pressure;BME280_temperature;BME280_humidity;BME280_pressure;Samples;Min_cycle;Max_cycle;Signal;HPM_P1;HPM_P2
2021/12/17 00:07:29;;;;;;;5.35;1.77;;;24.60;99.30;;;;;;5107794;28;20057;-74
2021/12/17 00:10:03;;;;;;;6.03;2.30;;;24.60;99.00;;;;;;5110166;28;20024;-76
2021/12/17 00:12:31;;;;;;;5.40;1.20;;;24.40;99.20;;;;;;5108404;28;20132;-74
2021/12/17 00:14:59;;;;;;;7.63;1.65;;;24.50;99.50;;;;;;5093807;28;20390;-73
2021/12/17 00:17:33;;;;;;;8.52;2.42;;;24.90;99.00;;;;;;5107887;28;20050;-75
2021/12/17 00:52:46;;;;;;;5.15;1.65;;;25.00;98.10;;;;;;5114022;28;20201;-74
2021/12/17 00:55:14;;;;;;;4.40;1.08;;;25.00;99.00;;;;;;5111944;28;20056;-76
2021/12/17 00:57:43;;;;;;;4.75;1.23;;;25.00;98.70;;;;;;5111375;28;20139;-78
2021/12/17 01:00:16;;;;;;;6.78;1.75;;;25.20;98.70;;;;;;5108612;28;20027;-78
2021/12/17 01:02:44;;;;;;;6.75;1.80;;;25.30;98.70;;;;;;5111254;28;20035;-79
2021/12/17 01:05:18;;;;;;;5.60;1.30;;;25.40;98.30;;;;;;5112382;28;20024;-76
2021/12/17 01:07:48;;;;;;;4.17;1.30;;;25.70;98.60;;;;;;5112703;27;20393;-76
2021/12/17 01:10:22;;;;;;;5.20;1.60;;;25.90;97.70;;;;;;5104397;28;20105;-74
2021/12/17 01:12:50;;;;;;;7.35;2.40;;;25.80;97.70;;;;;;5111803;28;20077;-74
2021/12/17 01:15:19;;;;;;;5.45;1.67;;;25.80;98.10;;;;;;5111669;28;20023;-76
2021/12/17 01:17:51;;;;;;;6.55;1.73;;;25.90;96.90;;;;;;5107307;28;20035;-74
2021/12/17 01:23:43;;;;;;;8.35;1.95;;;25.50;97.10;;;;;;5104580;27;20024;-76
2021/12/17 01:36:55;;;;;;;6.15;2.40;;;26.50;96.90;;;;;;5111869;28;20494;-75
2021/12/17 01:40:35;;;;;;;6.97;2.13;;;26.80;96.90;;;;;;5109403;28;20050;-77
2021/12/17 01:42:15;;;;;;;5.05;1.00;;;27.00;97.00;;;;;;5109073;28;20024;-73
2021/12/17 01:44:43;;;;;;;4.75;1.65;;;27.10;96.40;;;;;;5108712;28;20860;-75
2021/12/17 01:47:12;;;;;;;6.65;1.58;;;27.00;95.70;;;;;;5103617;28;20038;-74
2021/12/17 02:00:41;;;;;;;6.43;1.60;;;26.90;95.70;;;;;;5111007;28;20060;-79
2021/12/17 02:03:09;;;;;;;4.85;1.48;;;27.00;95.80;;;;;;5111277;28;20485;-79
2021/12/17 02:05:38;;;;;;;3.95;1.42;;;27.20;95.50;;;;;;5110117;28;20030;-77
2021/12/17 02:08:06;;;;;;;3.15;1.52;;;27.20;95.10;;;;;;5111590;28;20436;-78
2021/12/17 02:32:18;;;;;;;3.72;1.42;;;27.70;94.60;;;;;;5103624;28;20039;-78
2021/12/17 02:35:19;;;;;;;5.00;1.27;;;27.70;94.50;;;;;;5104681;28;20026;-76
2021/12/17 02:37:48;;;;;;;4.28;2.22;;;28.00;94.50;;;;;;5112806;28;20047;-78
2021/12/17 02:45:32;;;;;;;3.33;1.23;;;29.80;92.30;;;;;;5109330;28;20108;-79
2021/12/17 02:48:07;;;;;;;3.17;1.65;;;29.40;93.10;;;;;;5104744;27;20069;-76
2021/12/17 02:50:43;;;;;;;3.85;1.05;;;29.80;92.90;;;;;;5098744;28;20046;-76
2021/12/17 02:53:12;;;;;;;2.67;1.42;;;30.10;91.90;;;;;;5098084;28;20059;-79
2021/12/17 02:55:46;;;;;;;4.22;1.40;;;29.50;91.80;;;;;;5103410;28;20027;-79
2021/12/17 02:58:13;;;;;;;4.35;1.10;;;29.40;92.10;;;;;;5111106;28;20020;-79
2021/12/17 03:00:43;;;;;;;4.50;1.20;;;29.40;91.40;;;;;;5105814;28;20027;-79
2021/12/17 03:03:11;;;;;;;4.95;1.20;;;29.50;92.10;;;;;;5109382;28;20121;-77
2021/12/17 03:05:41;;;;;;;7.13;1.50;;;29.30;91.40;;;;;;5105976;28;20036;-76
2021/12/17 03:08:14;;;;;;;6.60;1.60;;;29.00;91.30;;;;;;5109436;28;20034;-76
2021/12/17 03:10:47;;;;;;;3.72;1.38;;;28.90;92.50;;;;;;5104089;28;20176;-75
2021/12/17 03:13:16;;;;;;;4.32;1.63;;;29.00;91.70;;;;;;5110021;28;20027;-78
2021/12/17 03:23:42;;;;;;;3.92;1.17;;;30.00;91.30;;;;;;5098649;28;20054;-74
2021/12/17 03:26:14;;;;;;;2.92;1.10;;;29.50;91.40;;;;;;5103197;28;20020;-76
2021/12/17 03:28:48;;;;;;;4.05;1.70;;;29.90;91.60;;;;;;5109777;28;20016;-75
2021/12/17 03:31:18;;;;;;;2.53;0.80;;;30.30;90.60;;;;;;5107979;28;20168;-77
2021/12/17 03:33:48;;;;;;;2.67;1.27;;;30.50;87.60;;;;;;5111293;28;20020;-76
2021/12/17 03:36:17;;;;;;;3.00;1.40;;;30.60;89.90;;;;;;5109700;28;20019;-76
2021/12/17 03:38:48;;;;;;;5.55;1.65;;;31.00;88.80;;;;;;5106928;28;20047;-75
2021/12/17 03:41:27;;;;;;;8.80;1.90;;;30.80;89.60;;;;;;5107059;28;20020;-77
2021/12/17 03:43:55;;;;;;;4.07;1.35;;;31.10;90.10;;;;;;5101441;28;20592;-78
2021/12/17 03:46:23;;;;;;;6.07;2.05;;;31.30;87.80;;;;;;5104616;28;20106;-74
2021/12/17 03:48:52;;;;;;;3.30;1.48;;;31.40;86.20;;;;;;5112616;28;20031;-77
2021/12/17 03:51:19;;;;;;;5.28;1.50;;;31.30;86.60;;;;;;5115830;28;20024;-74
2021/12/17 03:53:53;;;;;;;2.30;1.25;;;31.00;85.00;;;;;;5117453;28;20038;-74
2021/12/17 03:56:22;;;;;;;4.30;1.73;;;31.00;86.60;;;;;;5111997;28;20328;-79
2021/12/17 03:58:52;;;;;;;4.63;1.73;;;31.20;86.30;;;;;;5106645;28;20506;-78
2021/12/17 04:01:19;;;;;;;4.75;2.10;;;31.00;87.20;;;;;;5109612;27;20410;-76
2021/12/17 04:03:47;;;;;;;3.15;1.60;;;30.70;87.00;;;;;;5113870;28;20028;-78
2021/12/17 04:06:15;;;;;;;2.95;2.20;;;30.10;87.20;;;;;;5109634;28;20047;-77
2021/12/17 04:08:42;;;;;;;3.63;2.00;;;29.40;89.20;;;;;;5111890;28;20043;-76
2021/12/17 04:11:17;;;;;;;3.20;1.65;;;29.00;89.20;;;;;;5103510;28;20032;-76
2021/12/17 04:13:51;;;;;;;7.77;3.27;;;29.30;89.20;;;;;;5108367;28;20495;-76
2021/12/17 04:16:23;;;;;;;4.05;1.80;;;29.10;89.30;;;;;;5112097;28;20020;-77
2021/12/17 04:18:51;;;;;;;7.22;2.13;;;29.10;89.50;;;;;;5108653;28;20110;-76
2021/12/17 04:21:19;;;;;;;4.68;2.30;;;29.40;89.30;;;;;;5107645;28;20031;-75
2021/12/17 04:23:48;;;;;;;7.97;2.88;;;29.90;87.70;;;;;;5109643;28;20011;-78
2021/12/17 04:26:17;;;;;;;6.43;2.20;;;30.20;87.00;;;;;;5106958;28;20113;-76
2021/12/17 04:28:49;;;;;;;3.65;2.05;;;30.40;86.90;;;;;;5102330;28;20011;-77
2021/12/17 04:31:19;;;;;;;6.45;2.00;;;30.60;87.50;;;;;;5112017;28;20087;-76
2021/12/17 04:33:47;;;;;;;4.45;2.55;;;30.50;86.10;;;;;;5111282;28;20023;-77
2021/12/17 04:36:21;;;;;;;4.70;2.60;;;29.90;86.70;;;;;;5109831;28;20028;-75
2021/12/17 04:38:50;;;;;;;3.80;2.75;;;29.80;87.30;;;;;;5113339;28;20052;-77
2021/12/17 04:44:07;;;;;;;3.97;2.60;;;30.20;87.50;;;;;;5111223;28;20103;-76
2021/12/17 04:46:48;;;;;;;6.65;2.90;;;30.20;87.90;;;;;;5113080;28;20378;-76
2021/12/17 04:57:37;;;;;;;6.47;3.50;;;29.80;87.80;;;;;;5105075;28;20034;-77
2021/12/17 05:00:20;;;;;;;3.85;2.42;;;30.10;87.10;;;;;;5094494;28;20036;-75
2021/12/17 05:02:52;;;;;;;6.25;3.55;;;30.30;87.50;;;;;;5100271;27;20575;-78
2021/12/17 05:05:22;;;;;;;4.03;2.10;;;30.50;85.80;;;;;;5105296;28;20055;-76
2021/12/17 05:07:54;;;;;;;3.78;3.00;;;30.40;85.90;;;;;;5102584;27;20026;-77
2021/12/17 05:11:17;;;;;;;4.40;2.40;;;30.50;87.40;;;;;;5109601;27;20470;-76
2021/12/17 05:21:14;;;;;;;6.25;2.63;;;30.00;87.60;;;;;;5108329;28;19912;-76
2021/12/17 05:23:43;;;;;;;4.03;2.17;;;29.60;88.80;;;;;;5108640;28;20111;-75
2021/12/17 05:26:14;;;;;;;6.28;3.15;;;29.50;88.80;;;;;;5105029;27;20046;-73
2021/12/17 05:28:42;;;;;;;6.10;2.47;;;29.40;89.20;;;;;;5109817;28;20031;-74
2021/12/17 05:31:09;;;;;;;5.50;1.85;;;29.20;90.00;;;;;;5108599;28;20048;-75
2021/12/17 05:33:37;;;;;;;6.65;2.35;;;28.80;90.40;;;;;;5107817;28;20101;-76
2021/12/17 05:36:04;;;;;;;3.92;2.20;;;28.50;90.90;;;;;;5108500;28;20022;-77
2021/12/17 05:38:32;;;;;;;6.35;2.53;;;28.30;91.10;;;;;;5104381;28;20035;-75
2021/12/17 05:40:59;;;;;;;6.00;2.47;;;28.30;91.00;;;;;;5102001;28;20026;-76
2021/12/17 05:43:27;;;;;;;7.78;3.25;;;28.30;91.30;;;;;;5101365;28;20027;-74
2021/12/17 05:48:26;;;;;;;3.55;2.22;;;28.20;91.50;;;;;;5108161;28;20475;-79
2021/12/17 05:50:59;;;;;;;8.73;2.92;;;28.20;91.30;;;;;;5109805;27;20042;-79
2021/12/17 05:53:31;;;;;;;5.78;2.35;;;28.20;91.40;;;;;;5113003;28;20019;-78
2021/12/17 05:55:58;;;;;;;3.42;2.42;;;28.20;91.40;;;;;;5109143;28;20124;-77
2021/12/17 05:58:28;;;;;;;7.75;2.45;;;28.20;91.50;;;;;;5100891;28;20057;-76
2021/12/17 06:00:56;;;;;;;6.45;3.13;;;28.10;91.70;;;;;;5105674;27;20436;-77
2021/12/17 06:03:24;;;;;;;3.60;2.45;;;28.10;91.70;;;;;;5104120;28;20020;-78
2021/12/17 06:05:52;;;;;;;7.05;2.80;;;27.90;91.70;;;;;;5108835;27;20130;-75
2021/12/17 06:08:19;;;;;;;7.28;1.85;;;27.80;92.10;;;;;;5102126;28;20487;-76
2021/12/17 06:10:47;;;;;;;5.97;2.22;;;27.80;92.10;;;;;;5099734;28;20024;-75
2021/12/17 06:13:14;;;;;;;4.10;2.35;;;27.70;92.20;;;;;;5101018;28;20032;-76
2021/12/17 06:15:42;;;;;;;3.83;2.85;;;27.50;91.90;;;;;;5101524;28;20077;-77
2021/12/17 06:18:09;;;;;;;4.45;2.83;;;27.50;92.40;;;;;;5110465;28;20398;-78
2021/12/17 06:20:36;;;;;;;4.30;2.00;;;27.60;92.60;;;;;;5099605;28;20015;-78
2021/12/17 06:23:04;;;;;;;4.97;2.47;;;27.60;92.40;;;;;;5097423;28;20129;-77
2021/12/17 06:25:31;;;;;;;4.63;2.53;;;27.50;92.00;;;;;;5103671;28;20095;-77
2021/12/17 06:27:58;;;;;;;5.20;3.83;;;27.60;92.40;;;;;;5105343;28;20027;-76
2021/12/17 06:30:26;;;;;;;7.85;3.00;;;27.80;92.20;;;;;;5109580;28;20052;-76
2021/12/17 06:32:53;;;;;;;3.53;2.22;;;27.90;92.10;;;;;;5110762;28;20117;-76
2021/12/17 06:35:21;;;;;;;4.63;2.53;;;27.80;92.00;;;;;;5111640;28;20016;-77
2021/12/17 06:37:48;;;;;;;7.80;3.42;;;27.60;92.00;;;;;;5105029;28;20028;-77
2021/12/17 06:40:15;;;;;;;4.15;2.60;;;27.50;92.30;;;;;;5108242;28;20044;-76
2021/12/17 06:42:44;;;;;;;4.38;2.28;;;27.60;92.30;;;;;;5111868;28;20052;-75
2021/12/17 06:45:22;;;;;;;6.63;2.63;;;27.70;92.40;;;;;;5108175;28;20141;-78
2021/12/17 06:47:57;;;;;;;3.75;1.95;;;28.00;92.20;;;;;;5106466;28;20023;-79
2021/12/17 07:05:51;;;;;;;7.45;1.98;;;27.70;91.80;;;;;;5104711;28;20045;-79
2021/12/17 07:07:40;;;;;;;2.80;1.38;;;27.70;91.90;;;;;;5096900;28;20505;-78
2021/12/17 07:23:09;;;;;;;2.53;1.65;;;26.90;92.90;;;;;;5105763;28;20054;-75
2021/12/17 07:28:52;;;;;;;4.88;1.95;;;26.60;93.10;;;;;;5114489;27;20107;-75
2021/12/17 07:34:01;;;;;;;5.10;1.95;;;26.40;93.20;;;;;;5108083;28;20108;-76
2021/12/17 07:36:38;;;;;;;5.22;1.98;;;26.40;93.40;;;;;;5108994;28;20035;-79
2021/12/17 07:39:06;;;;;;;2.15;1.13;;;26.30;93.50;;;;;;5105494;28;20051;-77
2021/12/17 07:41:36;;;;;;;4.00;1.50;;;26.30;93.80;;;;;;5106282;28;20072;-78
2021/12/17 07:44:05;;;;;;;4.68;1.52;;;26.30;93.80;;;;;;5114862;28;20550;-78
2021/12/17 07:46:32;;;;;;;7.25;1.58;;;26.30;93.70;;;;;;5112635;28;20027;-76
2021/12/17 07:48:59;;;;;;;2.78;0.88;;;26.30;93.90;;;;;;5112183;28;20028;-75
2021/12/17 07:51:27;;;;;;;4.38;1.42;;;26.30;93.80;;;;;;5106291;27;20043;-79
2021/12/17 07:53:56;;;;;;;6.18;1.30;;;26.20;94.10;;;;;;5105139;27;20027;-78
2021/12/17 07:56:37;;;;;;;3.95;1.63;;;26.10;94.20;;;;;;5103713;27;20379;-76
2021/12/17 07:59:06;;;;;;;8.50;1.92;;;26.00;94.30;;;;;;5104539;27;20015;-75
2021/12/17 08:01:35;;;;;;;4.10;1.42;;;25.80;94.60;;;;;;5100571;28;20032;-76
2021/12/17 08:04:04;;;;;;;6.13;1.10;;;25.80;94.80;;;;;;5110087;28;20035;-77
2021/12/17 08:06:32;;;;;;;5.07;1.77;;;25.70;94.90;;;;;;5108933;28;20895;-75
2021/12/17 08:09:00;;;;;;;3.65;1.27;;;25.60;95.10;;;;;;5110308;28;20050;-75
2021/12/17 08:11:27;;;;;;;3.38;1.40;;;25.50;95.10;;;;;;5104319;28;20490;-76
2021/12/17 08:13:56;;;;;;;3.88;1.50;;;25.40;95.20;;;;;;5104691;28;20023;-75
2021/12/17 08:19:09;;;;;;;5.18;2.92;;;25.30;95.40;;;;;;5105604;28;20032;-76
2021/12/17 08:32:06;;;;;;;7.93;2.08;;;24.80;96.40;;;;;;5100018;28;20490;-75
2021/12/17 08:34:34;;;;;;;8.07;1.65;;;24.80;96.60;;;;;;5101823;27;20490;-80
2021/12/17 08:37:02;;;;;;;4.55;1.25;;;24.60;96.90;;;;;;5108870;28;20028;-79
2021/12/17 08:39:30;;;;;;;4.47;1.50;;;24.60;97.00;;;;;;5110215;28;20042;-79
2021/12/17 08:42:00;;;;;;;4.60;2.17;;;24.50;97.30;;;;;;5097157;28;20040;-80
2021/12/17 08:44:28;;;;;;;5.05;1.25;;;24.40;97.60;;;;;;5111815;28;20023;-77
2021/12/17 08:46:58;;;;;;;5.95;1.55;;;24.20;97.80;;;;;;5087480;28;20466;-78
2021/12/17 08:49:26;;;;;;;8.10;2.28;;;24.20;98.10;;;;;;5109401;28;20104;-80
2021/12/17 08:51:53;;;;;;;3.42;1.13;;;24.10;98.40;;;;;;5108098;28;20042;-79
2021/12/17 08:54:20;;;;;;;5.45;1.63;;;24.10;98.50;;;;;;5114365;28;20023;-79
2021/12/17 08:56:49;;;;;;;4.65;1.50;;;24.10;98.70;;;;;;5107198;28;20027;-77
2021/12/17 08:59:17;;;;;;;2.97;1.23;;;24.00;99.10;;;;;;5102239;27;20447;-76
2021/12/17 09:01:46;;;;;;;6.97;1.73;;;24.00;99.10;;;;;;5110937;27;20038;-77
2021/12/17 09:04:14;;;;;;;3.97;1.27;;;23.90;99.40;;;;;;5107662;28;20028;-77
2021/12/17 09:06:42;;;;;;;5.38;1.50;;;23.90;99.60;;;;;;5103259;28;20023;-78
2021/12/17 09:09:10;;;;;;;6.82;1.52;;;23.80;99.90;;;;;;5107087;28;20026;-79
2021/12/17 09:11:37;;;;;;;4.00;1.58;;;23.70;99.90;;;;;;5106082;28;20042;-79
2021/12/17 09:14:06;;;;;;;9.07;1.60;;;23.70;99.90;;;;;;5114633;28;20027;-79
2021/12/17 09:16:34;;;;;;;8.70;1.52;;;23.70;99.90;;;;;;5111549;28;20034;-79
2021/12/17 09:19:03;;;;;;;4.70;1.65;;;23.50;99.90;;;;;;5106180;28;20032;-77
2021/12/17 09:21:31;;;;;;;5.47;2.15;;;23.60;99.90;;;;;;5109179;27;20020;-78
2021/12/17 09:23:58;;;;;;;9.38;1.58;;;23.50;99.90;;;;;;5105624;27;20092;-78
2021/12/17 09:26:26;;;;;;;4.45;1.63;;;23.40;99.90;;;;;;5110778;28;20595;-78
2021/12/17 09:28:54;;;;;;;4.90;1.45;;;23.40;99.90;;;;;;5111583;28;20043;-78
2021/12/17 09:31:21;;;;;;;6.10;1.38;;;23.40;99.90;;;;;;5107447;28;20093;-78
2021/12/17 09:33:51;;;;;;;4.40;1.40;;;23.30;99.90;;;;;;5094247;28;20040;-79
2021/12/17 09:36:20;;;;;;;6.78;2.75;;;23.20;99.90;;;;;;5105087;28;20027;-76
2021/12/17 09:38:52;;;;;;;7.32;1.38;;;23.20;99.90;;;;;;5100423;28;20042;-77
2021/12/17 09:41:28;;;;;;;3.55;1.33;;;23.10;99.90;;;;;;5100395;28;21580;-77
2021/12/17 09:43:56;;;;;;;2.67;1.20;;;23.10;99.90;;;;;;5107558;28;20455;-74
2021/12/17 09:46:23;;;;;;;6.93;1.58;;;23.10;99.90;;;;;;5103878;28;20097;-75
2021/12/17 09:48:51;;;;;;;4.80;1.33;;;23.10;99.90;;;;;;5107535;28;20056;-76
2021/12/17 09:51:20;;;;;;;4.47;1.88;;;23.00;99.90;;;;;;5099566;28;20123;-78
2021/12/17 09:53:48;;;;;;;4.63;2.55;;;23.00;99.90;;;;;;5103574;28;20036;-77
2021/12/17 09:56:16;;;;;;;4.50;1.33;;;23.00;99.90;;;;;;5108500;28;20027;-76
2021/12/17 09:58:44;;;;;;;6.10;1.90;;;23.00;99.90;;;;;;5103861;28;20074;-76
2021/12/17 10:01:11;;;;;;;3.13;1.50;;;23.00;99.90;;;;;;5103629;28;20036;-78
2021/12/17 10:03:39;;;;;;;7.47;1.50;;;22.90;99.90;;;;;;5103686;28;20035;-79
2021/12/17 10:06:19;;;;;;;3.35;1.65;;;22.80;99.90;;;;;;5102502;27;20023;-76
2021/12/17 10:08:49;;;;;;;7.53;2.00;;;22.70;99.90;;;;;;5100653;28;21101;-78
2021/12/17 10:11:18;;;;;;;2.95;1.05;;;22.70;99.90;;;;;;5097708;28;20035;-78
2021/12/17 10:13:47;;;;;;;4.68;1.40;;;22.70;99.90;;;;;;5100674;28;20024;-78
2021/12/17 10:16:21;;;;;;;4.95;1.77;;;22.70;99.90;;;;;;5095866;27;20570;-79
2021/12/17 10:18:50;;;;;;;5.30;1.02;;;22.70;99.90;;;;;;5106846;27;20039;-78
2021/12/17 10:21:26;;;;;;;7.43;1.67;;;22.70;99.90;;;;;;5100527;28;20023;-78
2021/12/17 10:23:58;;;;;;;6.25;1.73;;;22.60;99.90;;;;;;5093254;28;20390;-79
2021/12/17 10:26:27;;;;;;;7.00;1.98;;;22.50;99.90;;;;;;5102698;28;20024;-79
2021/12/17 10:28:57;;;;;;;7.35;1.52;;;22.40;99.90;;;;;;5109267;28;20050;-79
2021/12/17 10:31:26;;;;;;;5.10;1.10;;;22.40;99.90;;;;;;5103493;28;20027;-77
2021/12/17 10:33:58;;;;;;;7.90;1.40;;;22.30;99.90;;;;;;5105647;28;20038;-79
2021/12/17 10:36:43;;;;;;;5.55;1.08;;;22.30;99.90;;;;;;5098609;27;20027;-78
2021/12/17 10:39:31;;;;;;;5.03;1.27;;;22.30;99.90;;;;;;5099365;27;20537;-78
2021/12/17 10:41:58;;;;;;;5.55;1.95;;;22.30;99.90;;;;;;5100736;27;20089;-79
2021/12/17 10:44:27;;;;;;;4.80;1.00;;;22.30;99.90;;;;;;5107838;27;20032;-75
2021/12/17 10:47:30;;;;;;;5.40;1.80;;;22.30;99.90;;;;;;5099445;28;20019;-74
2021/12/17 10:50:02;;;;;;;4.90;1.80;;;22.20;99.90;;;;;;5103477;28;20040;-79
2021/12/17 10:52:40;;;;;;;5.47;1.50;;;22.20;99.90;;;;;;5097618;28;20046;-77
2021/12/17 10:55:14;;;;;;;4.55;1.77;;;22.10;99.90;;;;;;5105063;27;20054;-79
2021/12/17 10:57:43;;;;;;;4.70;1.50;;;22.10;99.90;;;;;;5101077;28;20102;-77
2021/12/17 11:00:11;;;;;;;7.93;1.52;;;22.10;99.90;;;;;;5101900;28;20016;-77
2021/12/17 11:02:47;;;;;;;4.15;1.70;;;22.00;99.90;;;;;;5098675;28;20530;-78
2021/12/17 11:05:16;;;;;;;6.22;1.40;;;22.00;99.90;;;;;;5099555;28;20057;-77
2021/12/17 11:07:51;;;;;;;6.60;1.90;;;22.00;99.90;;;;;;5100259;28;20080;-78
2021/12/17 11:10:31;;;;;;;3.78;1.05;;;22.00;99.90;;;;;;5100401;28;20114;-78
2021/12/17 11:12:58;;;;;;;6.82;1.17;;;21.90;99.90;;;;;;5099824;28;20062;-79
2021/12/17 11:15:30;;;;;;;2.55;1.05;;;21.90;99.90;;;;;;5104543;28;20027;-78
2021/12/17 11:18:05;;;;;;;8.32;1.50;;;21.90;99.90;;;;;;5100997;28;20438;-79
2021/12/17 11:20:33;;;;;;;12.93;1.67;;;21.80;99.90;;;;;;5099643;28;20020;-77
2021/12/17 11:23:06;;;;;;;3.30;1.42;;;21.80;99.90;;;;;;5097354;28;20023;-77
2021/12/17 11:25:35;;;;;;;4.30;1.50;;;21.80;99.90;;;;;;5099644;28;20020;-76
2021/12/17 11:28:04;;;;;;;8.82;2.15;;;21.70;99.90;;;;;;5098877;28;20016;-76
2021/12/17 11:30:34;;;;;;;6.15;1.40;;;21.70;99.90;;;;;;5106339;28;20057;-76
2021/12/17 11:33:04;;;;;;;3.53;1.63;;;21.70;99.90;;;;;;5104590;28;20040;-76
2021/12/17 11:35:34;;;;;;;5.32;1.38;;;21.70;99.90;;;;;;5108852;28;20027;-75
2021/12/17 11:38:14;;;;;;;8.80;1.90;;;21.60;99.90;;;;;;5105489;28;20039;-76
2021/12/17 11:40:47;;;;;;;2.92;1.15;;;21.60;99.90;;;;;;5106528;28;20953;-76
2021/12/17 11:43:54;;;;;;;4.45;1.17;;;21.50;99.90;;;;;;5097053;28;20043;-77
2021/12/17 11:46:32;;;;;;;;;;;21.60;99.90;;;;;;5098586;28;20023;-75
2021/12/17 11:49:13;;;;;;;4.30;1.58;;;21.50;99.90;;;;;;5095163;28;20271;-76
2021/12/17 11:51:41;;;;;;;9.02;1.90;;;21.50;99.90;;;;;;5099249;28;20386;-75
2021/12/17 11:54:18;;;;;;;8.30;1.42;;;21.50;99.90;;;;;;5101159;28;20076;-76
2021/12/17 11:56:55;;;;;;;6.05;1.17;;;21.50;99.90;;;;;;5098025;28;20026;-77
2021/12/17 11:59:30;;;;;;;5.30;1.70;;;21.40;99.90;;;;;;5101955;28;20070;-78
2021/12/17 12:02:25;;;;;;;9.88;2.00;;;21.40;99.90;;;;;;5099800;28;20035;-77
2021/12/17 12:05:00;;;;;;;7.20;1.83;;;21.40;99.90;;;;;;5101065;28;20081;-75
2021/12/17 12:07:28;;;;;;;5.40;1.88;;;21.40;99.90;;;;;;5098791;28;20505;-75
2021/12/17 12:10:21;;;;;;;3.65;1.20;;;21.30;99.90;;;;;;5102630;27;20093;-75
2021/12/17 12:12:51;;;;;;;3.35;1.02;;;21.30;99.90;;;;;;5091219;28;20435;-77
2021/12/17 12:15:19;;;;;;;5.47;1.25;;;21.30;99.90;;;;;;5103652;28;20034;-77
2021/12/17 12:18:07;;;;;;;4.40;1.38;;;21.20;99.90;;;;;;5100630;28;21661;-78
2021/12/17 12:23:21;;;;;;;2.65;0.90;;;21.10;99.90;;;;;;5097627;28;20035;-77
2021/12/17 12:26:34;;;;;;;4.50;1.27;;;21.10;99.90;;;;;;5098037;27;20027;-77
2021/12/17 12:29:06;;;;;;;3.22;1.17;;;21.10;99.90;;;;;;5099235;27;20036;-77
2021/12/17 12:31:38;;;;;;;4.85;1.30;;;21.00;99.90;;;;;;5103506;28;20044;-77
2021/12/17 12:34:07;;;;;;;4.82;1.90;;;21.00;99.90;;;;;;5101067;27;20483;-76
2021/12/17 12:36:58;;;;;;;6.35;2.15;;;21.00;99.90;;;;;;5095430;28;20040;-78
2021/12/17 12:39:36;;;;;;;6.03;1.98;;;20.90;99.90;;;;;;5099617;28;20047;-76
2021/12/17 12:42:17;;;;;;;6.68;1.27;;;21.00;99.90;;;;;;5107430;28;20030;-76
2021/12/17 12:44:44;;;;;;;2.95;1.23;;;21.00;99.90;;;;;;5109793;28;20118;-75
2021/12/17 12:47:31;;;;;;;4.68;1.48;;;20.90;99.90;;;;;;5104698;28;20023;-75
2021/12/17 12:50:06;;;;;;;5.93;2.08;;;20.90;99.90;;;;;;5107469;28;20027;-75
2021/12/17 12:52:43;;;;;;;5.13;1.83;;;20.90;99.90;;;;;;5111526;28;20039;-76
2021/12/17 12:55:19;;;;;;;4.53;1.92;;;20.80;99.90;;;;;;5112793;28;20058;-75
2021/12/17 12:57:53;;;;;;;7.57;1.52;;;20.80;99.90;;;;;;5106409;28;20386;-75
2021/12/17 13:00:31;;;;;;;7.43;1.13;;;20.80;99.90;;;;;;5109779;28;20483;-75
2021/12/17 13:03:08;;;;;;;5.82;1.67;;;20.80;99.90;;;;;;5104376;28;20039;-75
2021/12/17 13:05:36;;;;;;;5.35;1.23;;;20.80;99.90;;;;;;5112199;28;20039;-75
2021/12/17 13:08:06;;;;;;;4.95;1.73;;;20.80;99.90;;;;;;5099549;28;20091;-76
2021/12/17 13:10:40;;;;;;;8.13;1.73;;;20.80;99.90;;;;;;5109646;28;20539;-76
2021/12/17 13:13:29;;;;;;;6.70;1.50;;;20.80;99.90;;;;;;5110734;28;20372;-76
2021/12/17 13:16:13;;;;;;;6.53;1.50;;;20.70;99.90;;;;;;5107541;28;20030;-76
2021/12/17 13:22:30;;;;;;;2.47;1.23;;;20.70;99.90;;;;;;5103645;28;20026;-75
2021/12/17 13:24:27;;;;;;;3.92;1.50;;;20.70;99.90;;;;;;5089344;28;20061;-75
2021/12/17 13:26:59;;;;;;;6.53;1.70;;;20.70;99.90;;;;;;5107287;28;20019;-77
2021/12/17 13:29:38;;;;;;;5.00;1.23;;;20.70;99.90;;;;;;5110299;28;20027;-75
2021/12/17 13:32:17;;;;;;;5.75;1.40;;;20.70;99.90;;;;;;5100189;28;20043;-77
2021/12/17 13:34:46;;;;;;;6.88;1.38;;;20.70;99.90;;;;;;5103843;28;20023;-76
2021/12/17 13:37:26;;;;;;;9.02;1.90;;;20.70;99.90;;;;;;5097966;28;20102;-76
2021/12/17 13:40:09;;;;;;;8.15;1.42;;;20.70;99.90;;;;;;5104875;28;20051;-75
2021/12/17 13:42:37;;;;;;;2.88;1.20;;;20.70;99.90;;;;;;5105394;28;20028;-76
2021/12/17 13:45:10;;;;;;;3.92;1.25;;;20.70;99.90;;;;;;5093374;28;20024;-75
2021/12/17 13:47:40;;;;;;;3.17;1.48;;;20.70;99.90;;;;;;5110095;28;20015;-75
2021/12/17 13:50:26;;;;;;;6.30;2.38;;;20.60;99.90;;;;;;5108699;28;20368;-74
2021/12/17 13:53:02;;;;;;;8.50;1.90;;;20.60;99.90;;;;;;5102982;28;20035;-75
2021/12/17 13:55:34;;;;;;;12.23;1.95;;;20.50;99.90;;;;;;5106663;28;20035;-75
2021/12/17 13:58:06;;;;;;;4.65;1.63;;;20.60;99.90;;;;;;5109227;28;20027;-76
2021/12/17 14:00:39;;;;;;;4.32;1.63;;;20.50;99.90;;;;;;5109018;28;20068;-76
2021/12/17 14:03:11;;;;;;;5.72;1.30;;;20.50;99.90;;;;;;5111514;28;20047;-76
2021/12/17 14:05:45;;;;;;;3.83;1.05;;;20.50;99.90;;;;;;5111839;28;20027;-76
2021/12/17 14:08:15;;;;;;;8.48;2.20;;;20.50;99.90;;;;;;5099568;28;20035;-77
2021/12/17 14:10:43;;;;;;;8.30;1.20;;;20.50;99.90;;;;;;5106569;28;20031;-76
2021/12/17 14:13:24;;;;;;;5.53;1.67;;;20.40;99.90;;;;;;5111552;28;20031;-76
2021/12/17 14:15:53;;;;;;;11.57;1.63;;;20.40;99.90;;;;;;5111796;28;20020;-75
2021/12/17 14:18:24;;;;;;;8.73;1.65;;;20.30;99.90;;;;;;5112837;28;20038;-75
2021/12/17 14:20:52;;;;;;;5.70;1.00;;;20.30;99.90;;;;;;5102797;28;20031;-75
2021/12/17 14:23:21;;;;;;;3.53;1.20;;;20.30;99.90;;;;;;5092675;28;20028;-76
2021/12/17 14:25:53;;;;;;;7.63;1.50;;;20.20;99.90;;;;;;5095638;28;20092;-76
2021/12/17 14:28:23;;;;;;;7.95;1.65;;;20.20;99.90;;;;;;5101564;28;20467;-75
2021/12/17 14:31:03;;;;;;;7.30;2.33;;;20.20;99.90;;;;;;5108135;27;20015;-76
2021/12/17 14:33:35;;;;;;;6.50;1.65;;;20.10;99.90;;;;;;5096604;28;20031;-77
2021/12/17 14:36:09;;;;;;;3.33;1.48;;;20.10;99.90;;;;;;5110561;28;20072;-77
2021/12/17 14:38:40;;;;;;;7.70;1.90;;;20.10;99.90;;;;;;5099807;28;20532;-76
2021/12/17 14:41:21;;;;;;;7.80;1.85;;;20.10;99.90;;;;;;5097562;28;20442;-76
2021/12/17 14:44:22;;;;;;;6.35;1.80;;;20.00;99.90;;;;;;5099717;28;20042;-76
2021/12/17 14:47:02;;;;;;;6.70;1.63;;;20.00;99.90;;;;;;5109458;28;20031;-76
2021/12/17 15:01:09;;;;;;;4.45;1.83;;;19.80;99.90;;;;;;5102344;28;20441;-75
2021/12/17 15:05:59;;;;;;;5.37;1.70;;;19.80;99.90;;;;;;5110285;28;20027;-75
2021/12/17 15:08:27;;;;;;;4.53;1.80;;;19.70;99.90;;;;;;5112292;28;20073;-75
2021/12/17 15:10:55;;;;;;;7.32;1.30;;;19.70;99.90;;;;;;5098823;28;20035;-75
2021/12/17 15:13:23;;;;;;;4.53;1.42;;;19.70;99.90;;;;;;5093512;28;20044;-76
2021/12/17 15:15:52;;;;;;;5.50;1.85;;;19.70;99.90;;;;;;5102585;28;20019;-76
2021/12/17 15:18:20;;;;;;;8.90;1.75;;;19.70;99.90;;;;;;5108403;28;20116;-75
2021/12/17 15:20:49;;;;;;;5.20;1.23;;;19.70;99.90;;;;;;5101048;28;20035;-76
2021/12/17 15:23:18;;;;;;;7.35;1.52;;;19.70;99.90;;;;;;5090245;28;20766;-76
2021/12/17 15:25:46;;;;;;;3.90;1.25;;;19.70;99.90;;;;;;5105472;28;20027;-76
2021/12/17 15:28:16;;;;;;;7.38;1.35;;;19.60;99.90;;;;;;5101806;28;20040;-77
2021/12/17 15:30:46;;;;;;;5.50;2.03;;;19.60;99.90;;;;;;5093565;28;20016;-77
2021/12/17 15:33:14;;;;;;;2.88;1.00;;;19.60;99.90;;;;;;5099518;28;20052;-76
2021/12/17 15:35:43;;;;;;;2.58;1.13;;;19.50;99.90;;;;;;5110667;28;20477;-78
2021/12/17 15:38:12;;;;;;;7.72;1.80;;;19.50;99.90;;;;;;5112216;28;20043;-75
2021/12/17 15:40:42;;;;;;;3.85;1.38;;;19.50;99.90;;;;;;5110589;28;20036;-77
2021/12/17 15:43:10;;;;;;;3.38;1.92;;;19.50;99.90;;;;;;5103847;28;20016;-77
2021/12/17 15:45:41;;;;;;;4.65;1.80;;;19.50;99.90;;;;;;5110906;28;20085;-77
2021/12/17 15:48:11;;;;;;;2.72;1.02;;;19.50;99.90;;;;;;5110917;28;20478;-76
2021/12/17 15:50:38;;;;;;;5.82;1.70;;;19.50;99.90;;;;;;5114950;28;20030;-76
2021/12/17 15:53:06;;;;;;;5.25;1.50;;;19.50;99.90;;;;;;5099536;28;20038;-76
2021/12/17 15:55:33;;;;;;;4.28;1.48;;;19.40;99.90;;;;;;5104973;27;20084;-76
2021/12/17 15:58:02;;;;;;;7.38;1.70;;;19.40;99.90;;;;;;5125535;28;20024;-76
2021/12/17 16:00:33;;;;;;;5.63;2.28;;;19.40;99.90;;;;;;5116227;28;20024;-74
2021/12/17 16:03:02;;;;;;;3.22;1.63;;;19.30;99.90;;;;;;5095803;28;20020;-76
2021/12/17 16:05:31;;;;;;;7.65;1.27;;;19.30;99.90;;;;;;5109797;28;20027;-76
2021/12/17 16:07:58;;;;;;;7.07;1.48;;;19.30;99.90;;;;;;5105697;27;20032;-78
2021/12/17 16:11:11;;;;;;;3.85;1.50;;;19.20;99.90;;;;;;5095472;28;20031;-77
2021/12/17 16:21:51;;;;;;;3.55;1.40;;;19.10;99.90;;;;;;5098919;28;20790;-77
2021/12/17 16:24:19;;;;;;;4.68;1.63;;;19.20;99.90;;;;;;5106466;28;20046;-77
2021/12/17 16:26:46;;;;;;;8.52;1.67;;;19.20;99.90;;;;;;5112315;28;20530;-77